createdAt,value
2019-03-27T00:00:16.092Z,96939.00
2019-03-27T00:02:48.870Z,96932.00
2019-03-27T00:05:21.493Z,96943.00
2019-03-27T00:07:54.154Z,96942.00
2019-03-27T00:10:27.065Z,96942.00
2019-03-27T00:13:00.059Z,96935.00
2019-03-27T00:15:32.970Z,96929.00
2019-03-27T00:18:05.674Z,96933.00
2019-03-27T00:20:38.322Z,96932.00
2019-03-27T00:23:11.094Z,96915.00
2019-03-27T00:25:43.757Z,96915.00
2019-03-27T00:28:16.564Z,96927.00
2019-03-27T00:30:49.199Z,96922.00
2019-03-27T00:33:22.301Z,96920.00
2019-03-27T00:35:54.932Z,96916.00
2019-03-27T00:38:27.618Z,96912.00
2019-03-27T00:41:00.366Z,96903.00
2019-03-27T00:43:33.064Z,96907.00
2019-03-27T00:46:06.016Z,96914.00
2019-03-27T00:48:38.721Z,96915.00
2019-03-27T00:51:11.699Z,96920.00
2019-03-27T00:53:44.712Z,96912.00
2019-03-27T00:56:17.622Z,96904.00
2019-03-27T00:58:50.571Z,96913.00
2019-03-27T01:01:23.197Z,96912.00
2019-03-27T01:03:56.239Z,96918.00
2019-03-27T01:06:28.865Z,96909.00
2019-03-27T01:09:02.450Z,96902.00
2019-03-27T01:11:35.083Z,96911.00
2019-03-27T01:14:08.051Z,96901.00
2019-03-27T01:16:40.683Z,96901.00
2019-03-27T01:19:13.709Z,96904.00
2019-03-27T01:21:46.692Z,96903.00
2019-03-27T01:24:19.671Z,96904.00
2019-03-27T01:26:52.312Z,96897.00
2019-03-27T01:29:24.985Z,96895.00
2019-03-27T01:31:57.645Z,96904.00
2019-03-27T01:34:30.327Z,96904.00
2019-03-27T01:37:02.965Z,96905.00
2019-03-27T01:39:35.910Z,96898.00
2019-03-27T01:42:08.558Z,96901.00
2019-03-27T01:44:41.647Z,96895.00
2019-03-27T01:47:14.256Z,96898.00
2019-03-27T01:49:46.925Z,96896.00
2019-03-27T01:52:19.866Z,96896.00
2019-03-27T01:54:52.556Z,96902.00
2019-03-27T01:57:25.756Z,96896.00
2019-03-27T01:59:58.401Z,96901.00
2019-03-27T02:02:31.167Z,96896.00
2019-03-27T02:05:03.871Z,96894.00
2019-03-27T02:07:37.395Z,96901.00
2019-03-27T02:10:10.694Z,96890.00
2019-03-27T02:12:43.309Z,96888.00
2019-03-27T02:15:16.277Z,96898.00
2019-03-27T02:17:49.180Z,96899.00
2019-03-27T02:20:21.868Z,96900.00
2019-03-27T02:22:56.291Z,96896.00
2019-03-27T02:25:29.222Z,96898.00
2019-03-27T02:28:02.161Z,96893.00
2019-03-27T02:30:34.792Z,96890.00
2019-03-27T02:33:07.875Z,96887.00
2019-03-27T02:35:40.670Z,96881.00
2019-03-27T02:38:14.078Z,96884.00
2019-03-27T02:40:47.005Z,96888.00
2019-03-27T02:43:19.689Z,96889.00
2019-03-27T02:45:52.330Z,96883.00
2019-03-27T02:48:25.011Z,96893.00
2019-03-27T02:50:57.612Z,96905.00
2019-03-27T02:53:30.286Z,96900.00
2019-03-27T02:56:02.889Z,96902.00
2019-03-27T02:58:35.556Z,96912.00
2019-03-27T03:01:08.487Z,96913.00
2019-03-27T03:03:41.458Z,96908.00
2019-03-27T03:06:14.353Z,96907.00
2019-03-27T03:08:47.034Z,96905.00
2019-03-27T03:11:19.664Z,96911.00
2019-03-27T03:13:52.331Z,96899.00
2019-03-27T03:16:41.218Z,96907.00
2019-03-27T03:18:59.449Z,96894.00
2019-03-27T03:21:32.061Z,96909.00
2019-03-27T03:24:05.001Z,96896.00
2019-03-27T03:26:37.639Z,96898.00
2019-03-27T03:29:10.851Z,96904.00
2019-03-27T03:31:44.161Z,96912.00
2019-03-27T03:34:16.864Z,96908.00
2019-03-27T03:36:49.864Z,96906.00
2019-03-27T03:39:22.528Z,96914.00
2019-03-27T03:41:55.511Z,96912.00
2019-03-27T03:44:28.338Z,96913.00
2019-03-27T03:47:01.005Z,96909.00
2019-03-27T03:49:33.935Z,96915.00
2019-03-27T03:52:06.955Z,96923.00
2019-03-27T03:54:39.609Z,96910.00
2019-03-27T03:57:12.530Z,96909.00
2019-03-27T03:59:45.353Z,96908.00
2019-03-27T04:02:18.678Z,96914.00
2019-03-27T04:04:52.686Z,96911.00
2019-03-27T04:07:26.247Z,96918.00
2019-03-27T04:09:59.333Z,96907.00
2019-03-27T04:12:31.987Z,96915.00
2019-03-27T04:15:05.026Z,96921.00
2019-03-27T04:17:37.947Z,96912.00
2019-03-27T04:20:10.563Z,96910.00
2019-03-27T04:22:43.571Z,96920.00
2019-03-27T04:25:16.528Z,96918.00
2019-03-27T04:27:49.202Z,96915.00
2019-03-27T04:30:21.835Z,96912.00
2019-03-27T04:32:54.665Z,96909.00
2019-03-27T04:35:27.626Z,96909.00
2019-03-27T04:38:00.336Z,96916.00
2019-03-27T04:40:33.378Z,96918.00
2019-03-27T04:43:06.041Z,96919.00
2019-03-27T04:45:38.958Z,96912.00
2019-03-27T04:48:11.919Z,96916.00
2019-03-27T04:50:44.865Z,96919.00
2019-03-27T04:53:17.935Z,96919.00
2019-03-27T04:55:50.549Z,96918.00
2019-03-27T04:58:23.224Z,96922.00
2019-03-27T05:00:55.835Z,96920.00
2019-03-27T05:03:28.491Z,96921.00
2019-03-27T05:06:01.110Z,96932.00
2019-03-27T05:08:33.940Z,96932.00
2019-03-27T05:11:07.064Z,96936.00
2019-03-27T05:13:40.021Z,96932.00
2019-03-27T05:16:12.658Z,96941.00
2019-03-27T05:18:45.327Z,96944.00
2019-03-27T05:21:18.215Z,96938.00
2019-03-27T05:23:50.879Z,96952.00
2019-03-27T05:26:23.499Z,96945.00
2019-03-27T05:28:56.272Z,96952.00
2019-03-27T05:31:29.196Z,96946.00
2019-03-27T05:34:01.893Z,96951.00
2019-03-27T05:36:35.490Z,96940.00
2019-03-27T05:39:08.591Z,96953.00
2019-03-27T05:41:41.215Z,96950.00
2019-03-27T05:44:14.536Z,96959.00
2019-03-27T05:46:47.846Z,96967.00
2019-03-27T05:49:20.532Z,96959.00
2019-03-27T05:51:53.345Z,96970.00
2019-03-27T05:54:26.019Z,96974.00
2019-03-27T05:56:58.691Z,96974.00
2019-03-27T05:59:32.862Z,96973.00
2019-03-27T06:02:05.507Z,96988.00
2019-03-27T06:04:38.182Z,96982.00
2019-03-27T06:07:11.225Z,96977.00
2019-03-27T06:09:44.398Z,96989.00
2019-03-27T06:12:17.658Z,96984.00
2019-03-27T06:14:50.206Z,96990.00
2019-03-27T06:17:22.826Z,96980.00
2019-03-27T06:19:55.574Z,96980.00
2019-03-27T06:22:28.230Z,96983.00
2019-03-27T06:25:01.012Z,96984.00
2019-03-27T06:27:33.652Z,96987.00
2019-03-27T06:30:07.202Z,96985.00
2019-03-27T06:32:39.879Z,96985.00
2019-03-27T06:35:12.649Z,96990.00
2019-03-27T06:37:45.636Z,96982.00
2019-03-27T06:40:18.633Z,96989.00
2019-03-27T06:42:51.283Z,96998.00
2019-03-27T06:45:23.923Z,96987.00
2019-03-27T06:47:56.956Z,96984.00
2019-03-27T06:50:29.588Z,96984.00
2019-03-27T06:53:02.626Z,96980.00
2019-03-27T06:55:35.548Z,96980.00
2019-03-27T06:58:08.153Z,96981.00
2019-03-27T07:00:41.049Z,96989.00
2019-03-27T07:03:13.658Z,96998.00
2019-03-27T07:05:46.311Z,96988.00
2019-03-27T07:08:18.921Z,96997.00
2019-03-27T07:10:51.579Z,96996.00
2019-03-27T07:13:24.187Z,96997.00
2019-03-27T07:15:57.230Z,97003.00
2019-03-27T07:18:39.510Z,96987.00
2019-03-27T07:21:04.215Z,96999.00
2019-03-27T07:23:37.152Z,97002.00
2019-03-27T07:26:10.136Z,96990.00
2019-03-27T07:28:42.732Z,97010.00
2019-03-27T07:31:15.692Z,97006.00
2019-03-27T07:33:48.342Z,97004.00
2019-03-27T07:36:20.982Z,97007.00
2019-03-27T07:38:53.597Z,97020.00
2019-03-27T07:41:26.314Z,97026.00
2019-03-27T07:43:58.932Z,97026.00
2019-03-27T07:46:33.267Z,97034.00
2019-03-27T07:49:05.879Z,97040.00
2019-03-27T07:51:38.517Z,97025.00
2019-03-27T07:54:11.133Z,97035.00
2019-03-27T07:56:44.145Z,97031.00
2019-03-27T07:59:16.745Z,97028.00
2019-03-27T08:01:49.393Z,97037.00
2019-03-27T08:04:22.077Z,97039.00
2019-03-27T08:06:54.707Z,97036.00
2019-03-27T08:09:27.338Z,97045.00
2019-03-27T08:12:00.303Z,97035.00
2019-03-27T08:14:33.014Z,97036.00
2019-03-27T08:17:05.704Z,97038.00
2019-03-27T08:19:38.318Z,97032.00
2019-03-27T08:22:10.975Z,97039.00
2019-03-27T08:24:43.991Z,97047.00
2019-03-27T08:27:17.028Z,97028.00
2019-03-27T08:29:49.689Z,97030.00
2019-03-27T08:32:22.426Z,97027.00
2019-03-27T08:34:55.065Z,97027.00
2019-03-27T08:37:28.044Z,97027.00
2019-03-27T08:40:00.663Z,97024.00
2019-03-27T08:42:33.337Z,97029.00
2019-03-27T08:45:06.920Z,97035.00
2019-03-27T08:47:39.882Z,97041.00
2019-03-27T08:50:12.960Z,97046.00
2019-03-27T08:52:45.618Z,97046.00
2019-03-27T08:55:18.443Z,97048.00
2019-03-27T08:57:51.369Z,97050.00
2019-03-27T09:00:46.136Z,97050.00
2019-03-27T09:03:18.920Z,97049.00
2019-03-27T09:05:51.960Z,97055.00
2019-03-27T09:08:24.614Z,97055.00
2019-03-27T09:10:57.243Z,97059.00
2019-03-27T09:13:32.114Z,97048.00
2019-03-27T09:16:04.751Z,97057.00
2019-03-27T09:18:37.391Z,97055.00
2019-03-27T09:21:10.390Z,97056.00
2019-03-27T09:23:45.665Z,97045.00
2019-03-27T09:26:18.155Z,97047.00
2019-03-27T09:28:50.826Z,97054.00
2019-03-27T09:31:26.519Z,97052.00
2019-03-27T09:33:59.389Z,97066.00
2019-03-27T09:36:32.149Z,97074.00
2019-03-27T09:39:07.216Z,97071.00
2019-03-27T09:41:40.278Z,97062.00
2019-03-27T09:44:13.247Z,97059.00
2019-03-27T09:46:46.187Z,97061.00
2019-03-27T09:49:19.208Z,97058.00
2019-03-27T09:51:52.175Z,97066.00
2019-03-27T09:54:24.824Z,97059.00
2019-03-27T09:56:57.450Z,97060.00
2019-03-27T09:59:30.494Z,97065.00
2019-03-27T10:02:03.185Z,97060.00
2019-03-27T10:04:35.832Z,97065.00
2019-03-27T10:07:08.462Z,97060.00
2019-03-27T10:09:41.433Z,97059.00
2019-03-27T10:12:14.063Z,97051.00
2019-03-27T10:14:47.732Z,97057.00
2019-03-27T10:17:20.550Z,97063.00
2019-03-27T10:20:03.181Z,97056.00
2019-03-27T10:22:27.903Z,97059.00
2019-03-27T10:25:00.558Z,97062.00
2019-03-27T10:27:33.166Z,97062.00
2019-03-27T10:30:06.358Z,97055.00
2019-03-27T10:32:38.980Z,97053.00
2019-03-27T10:35:12.017Z,97045.00
2019-03-27T10:37:44.628Z,97042.00
2019-03-27T10:40:17.399Z,97047.00
2019-03-27T10:42:50.358Z,97046.00
2019-03-27T10:45:23.348Z,97047.00
2019-03-27T10:47:55.963Z,97054.00
2019-03-27T10:50:28.614Z,97047.00
2019-03-27T10:53:01.230Z,97048.00
2019-03-27T10:55:34.644Z,97044.00
2019-03-27T10:58:07.348Z,97046.00
2019-03-27T11:00:40.510Z,97052.00
2019-03-27T11:03:13.128Z,97055.00
2019-03-27T11:05:46.114Z,97065.00
2019-03-27T11:08:18.740Z,97066.00
2019-03-27T11:10:51.394Z,97057.00
2019-03-27T11:13:24.096Z,97059.00
2019-03-27T11:15:56.754Z,97060.00
2019-03-27T11:18:29.424Z,97062.00
2019-03-27T11:21:02.039Z,97057.00
2019-03-27T11:23:35.071Z,97059.00
2019-03-27T11:26:07.683Z,97056.00
2019-03-27T11:28:40.230Z,97062.00
2019-03-27T11:31:12.958Z,97053.00
2019-03-27T11:33:45.657Z,97046.00
2019-03-27T11:36:18.281Z,97047.00
2019-03-27T11:38:51.246Z,97052.00
2019-03-27T11:41:25.169Z,97054.00
2019-03-27T11:43:58.289Z,97057.00
2019-03-27T11:46:32.410Z,97049.00
2019-03-27T11:49:05.194Z,97046.00
2019-03-27T11:51:38.238Z,97044.00
2019-03-27T11:54:10.993Z,97049.00
2019-03-27T11:56:44.002Z,97045.00
2019-03-27T11:59:16.628Z,97049.00
2019-03-27T12:01:49.271Z,97052.00
2019-03-27T12:04:21.881Z,97062.00
2019-03-27T12:06:54.918Z,97055.00
2019-03-27T12:09:28.407Z,97048.00
2019-03-27T12:12:01.051Z,97045.00
2019-03-27T12:14:33.723Z,97046.00
2019-03-27T12:17:06.785Z,97044.00
2019-03-27T12:19:39.397Z,97042.00
2019-03-27T12:22:12.043Z,97042.00
2019-03-27T12:24:44.659Z,97040.00
2019-03-27T12:27:17.293Z,97039.00
2019-03-27T12:29:50.288Z,97043.00
2019-03-27T12:32:25.147Z,97046.00
2019-03-27T12:34:57.872Z,97037.00
2019-03-27T12:37:30.502Z,97034.00
2019-03-27T12:40:11.013Z,97031.00
2019-03-27T12:42:38.430Z,97028.00
2019-03-27T12:45:11.451Z,97027.00
2019-03-27T12:47:43.835Z,97010.00
2019-03-27T12:50:16.549Z,97027.00
2019-03-27T12:52:49.488Z,97023.00
2019-03-27T12:55:22.496Z,97017.00
2019-03-27T12:57:55.113Z,97010.00
2019-03-27T13:00:27.783Z,97016.00
2019-03-27T13:03:00.387Z,97014.00
2019-03-27T13:05:33.317Z,97014.00
2019-03-27T13:08:06.224Z,97013.00
2019-03-27T13:10:39.374Z,97010.00
2019-03-27T13:13:12.362Z,97009.00
2019-03-27T13:15:45.009Z,97014.00
2019-03-27T13:18:17.611Z,97003.00
2019-03-27T13:20:50.273Z,97009.00
2019-03-27T13:23:22.881Z,97004.00
2019-03-27T13:25:55.880Z,97004.00
2019-03-27T13:28:28.487Z,97005.00
2019-03-27T13:31:01.145Z,97002.00
2019-03-27T13:33:34.205Z,97003.00
2019-03-27T13:36:06.941Z,97006.00
2019-03-27T13:38:39.849Z,97011.00
2019-03-27T13:41:12.516Z,97006.00
2019-03-27T13:43:45.133Z,97004.00
2019-03-27T13:46:18.513Z,97002.00
2019-03-27T13:48:51.120Z,97005.00
2019-03-27T13:51:23.783Z,97007.00
2019-03-27T13:53:56.393Z,97008.00
2019-03-27T13:56:29.372Z,97002.00
2019-03-27T13:59:01.984Z,97003.00
2019-03-27T14:01:34.643Z,97004.00
2019-03-27T14:04:07.276Z,97012.00
2019-03-27T14:06:40.262Z,97001.00
2019-03-27T14:09:12.864Z,97000.00
2019-03-27T14:11:45.815Z,97000.00
2019-03-27T14:14:18.435Z,96993.00
2019-03-27T14:16:51.077Z,96987.00
2019-03-27T14:19:23.714Z,96986.00
2019-03-27T14:21:56.381Z,96996.00
2019-03-27T14:24:28.994Z,96983.00
2019-03-27T14:27:02.034Z,96982.00
2019-03-27T14:29:34.635Z,96992.00
2019-03-27T14:32:07.366Z,96988.00
2019-03-27T14:34:41.466Z,96991.00
2019-03-27T14:37:14.453Z,96985.00
2019-03-27T14:39:47.062Z,97000.00
2019-03-27T14:42:19.697Z,96997.00
2019-03-27T14:44:52.302Z,97005.00
2019-03-27T14:47:25.497Z,96999.00
2019-03-27T14:49:58.111Z,96998.00
2019-03-27T14:52:30.779Z,97004.00
2019-03-27T14:55:03.571Z,97009.00
2019-03-27T14:57:36.246Z,96998.00
2019-03-27T15:00:10.591Z,97004.00
2019-03-27T15:02:43.612Z,97016.00
2019-03-27T15:05:16.779Z,97007.00
2019-03-27T15:07:49.809Z,97007.00
2019-03-27T15:10:22.540Z,97010.00
2019-03-27T15:12:55.198Z,97004.00
2019-03-27T15:15:27.826Z,97007.00
2019-03-27T15:18:00.975Z,97010.00
2019-03-27T15:20:33.584Z,97006.00
2019-03-27T15:23:06.584Z,97017.00
2019-03-27T15:25:39.193Z,97012.00
2019-03-27T15:28:12.197Z,97010.00
2019-03-27T15:30:44.827Z,97018.00
2019-03-27T15:33:17.454Z,97014.00
2019-03-27T15:35:50.903Z,97014.00
2019-03-27T15:38:23.819Z,97017.00
2019-03-27T15:40:56.427Z,97009.00
2019-03-27T15:43:29.441Z,97014.00
2019-03-27T15:46:02.088Z,97011.00
2019-03-27T15:48:34.696Z,97021.00
2019-03-27T15:51:07.308Z,97011.00
2019-03-27T15:53:39.947Z,97011.00
2019-03-27T15:56:12.621Z,97024.00
2019-03-27T15:58:45.234Z,97019.00
2019-03-27T16:01:17.901Z,97015.00
2019-03-27T16:03:50.579Z,97013.00
2019-03-27T16:06:23.234Z,97014.00
2019-03-27T16:08:55.847Z,97015.00
2019-03-27T16:11:28.537Z,96957.00
2019-03-27T16:14:01.142Z,97009.00
2019-03-27T16:16:33.863Z,97014.00
2019-03-27T16:19:06.489Z,97017.00
2019-03-27T16:21:39.524Z,97009.00
2019-03-27T16:24:12.473Z,97011.00
2019-03-27T16:26:53.329Z,97011.00
2019-03-27T16:29:19.811Z,97019.00
2019-03-27T16:31:52.489Z,97030.00
2019-03-27T16:34:25.501Z,97021.00
2019-03-27T16:36:58.531Z,97025.00
2019-03-27T16:39:31.549Z,97030.00
2019-03-27T16:42:07.188Z,97033.00
2019-03-27T16:44:41.628Z,97033.00
2019-03-27T16:47:16.152Z,97038.00
2019-03-27T16:49:49.425Z,97036.00
2019-03-27T16:52:22.133Z,97037.00
2019-03-27T16:54:54.812Z,97041.00
2019-03-27T16:57:27.543Z,97035.00
2019-03-27T17:00:01.310Z,97046.00
2019-03-27T17:02:34.848Z,97043.00
2019-03-27T17:05:08.134Z,97039.00
2019-03-27T17:07:41.330Z,97055.00
2019-03-27T17:10:14.458Z,97056.00
2019-03-27T17:12:47.126Z,97049.00
2019-03-27T17:15:20.268Z,97055.00
2019-03-27T17:17:52.964Z,97062.00
2019-03-27T17:20:25.679Z,97054.00
2019-03-27T17:22:58.492Z,97055.00
2019-03-27T17:25:31.707Z,97058.00
2019-03-27T17:28:05.281Z,97064.00
2019-03-27T17:30:37.924Z,97072.00
2019-03-27T17:33:10.568Z,97063.00
2019-03-27T17:35:43.244Z,97076.00
2019-03-27T17:38:15.975Z,97078.00
2019-03-27T17:40:48.960Z,97080.00
2019-03-27T17:43:21.647Z,97085.00
2019-03-27T17:45:54.655Z,97095.00
2019-03-27T17:48:27.305Z,97092.00
2019-03-27T17:51:00.026Z,97098.00
2019-03-27T17:53:32.834Z,97098.00
2019-03-27T17:56:05.623Z,97096.00
2019-03-27T17:58:38.331Z,97108.00
2019-03-27T18:01:10.952Z,97103.00
2019-03-27T18:03:43.646Z,97104.00
2019-03-27T18:06:16.277Z,97101.00
2019-03-27T18:08:48.950Z,97106.00
2019-03-27T18:11:21.954Z,97115.00
2019-03-27T18:13:54.622Z,97118.00
2019-03-27T18:16:28.103Z,97120.00
2019-03-27T18:19:00.771Z,97117.00
2019-03-27T18:21:33.389Z,97120.00
2019-03-27T18:24:06.374Z,97129.00
2019-03-27T18:26:39.057Z,97127.00
2019-03-27T18:29:12.045Z,97124.00
2019-03-27T18:31:46.076Z,97135.00
2019-03-27T18:34:19.142Z,97141.00
2019-03-27T18:36:52.403Z,97144.00
2019-03-27T18:39:25.164Z,97144.00
2019-03-27T18:41:57.762Z,97143.00
2019-03-27T18:44:30.453Z,97138.00
2019-03-27T18:47:03.518Z,97148.00
2019-03-27T18:49:36.141Z,97145.00
2019-03-27T18:52:11.280Z,97145.00
2019-03-27T18:54:44.249Z,97155.00
2019-03-27T18:57:17.141Z,97156.00
2019-03-27T18:59:49.823Z,97154.00
2019-03-27T19:02:22.443Z,97166.00
2019-03-27T19:04:55.121Z,97163.00
2019-03-27T19:07:27.907Z,97167.00
2019-03-27T19:10:00.595Z,97168.00
2019-03-27T19:12:33.214Z,97172.00
2019-03-27T19:15:06.868Z,97177.00
2019-03-27T19:17:39.504Z,97183.00
2019-03-27T19:20:12.320Z,97188.00
2019-03-27T19:22:45.621Z,97181.00
2019-03-27T19:25:18.565Z,97187.00
2019-03-27T19:27:51.206Z,97192.00
2019-03-27T19:30:24.361Z,97189.00
2019-03-27T19:32:56.972Z,97190.00
2019-03-27T19:35:29.999Z,97198.00
2019-03-27T19:38:02.875Z,97200.00
2019-03-27T19:40:35.674Z,97200.00
2019-03-27T19:43:08.404Z,97200.00
2019-03-27T19:45:41.078Z,97207.00
2019-03-27T19:48:13.685Z,97208.00
2019-03-27T19:50:47.041Z,97197.00
2019-03-27T19:53:19.545Z,96882.00
2019-03-27T19:55:53.052Z,97209.00
2019-03-27T19:58:25.963Z,97205.00
2019-03-27T20:00:58.939Z,97202.00
2019-03-27T20:03:34.515Z,97207.00
2019-03-27T20:06:06.419Z,97198.00
2019-03-27T20:08:42.307Z,97207.00
2019-03-27T20:11:15.833Z,97217.00
2019-03-27T20:13:48.937Z,97211.00
2019-03-27T20:16:22.088Z,97209.00
2019-03-27T20:18:55.312Z,97207.00
2019-03-27T20:21:29.462Z,97204.00
2019-03-27T20:24:02.337Z,97208.00
2019-03-27T20:26:35.518Z,97212.00
2019-03-27T20:29:08.941Z,97214.00
2019-03-27T20:31:42.157Z,97216.00
2019-03-27T20:34:15.386Z,97215.00
2019-03-27T20:36:48.402Z,97218.00
2019-03-27T20:39:21.242Z,97212.00
2019-03-27T20:41:54.604Z,97218.00
2019-03-27T20:44:27.821Z,97213.00
2019-03-27T20:47:02.065Z,97208.00
2019-03-27T20:49:35.827Z,97213.00
2019-03-27T20:52:08.492Z,97212.00
2019-03-27T20:54:53.947Z,97217.00
2019-03-27T20:57:15.457Z,97211.00
2019-03-27T20:59:48.069Z,97216.00
2019-03-27T21:02:20.745Z,97220.00
2019-03-27T21:04:53.413Z,97210.00
2019-03-27T21:07:26.335Z,97216.00
2019-03-27T21:09:59.284Z,97215.00
2019-03-27T21:12:32.050Z,97222.00
2019-03-27T21:15:04.800Z,97211.00
2019-03-27T21:17:37.461Z,97222.00
2019-03-27T21:20:10.401Z,97219.00
2019-03-27T21:22:43.047Z,97210.00
2019-03-27T21:25:15.810Z,97216.00
2019-03-27T21:27:48.610Z,97212.00
2019-03-27T21:30:21.262Z,97148.00
2019-03-27T21:32:53.929Z,97217.00
2019-03-27T21:35:26.603Z,97204.00
2019-03-27T21:37:59.309Z,97212.00
2019-03-27T21:40:31.968Z,97202.00
2019-03-27T21:43:05.262Z,97212.00
2019-03-27T21:45:37.880Z,97212.00
2019-03-27T21:48:10.605Z,97219.00
2019-03-27T21:50:43.263Z,97208.00
2019-03-27T21:53:16.379Z,97216.00
2019-03-27T21:55:49.320Z,97210.00
2019-03-27T21:58:22.618Z,97219.00
2019-03-27T22:00:55.569Z,97230.00
2019-03-27T22:03:28.300Z,97222.00
2019-03-27T22:06:01.380Z,97227.00
2019-03-27T22:08:34.388Z,97228.00
2019-03-27T22:11:09.639Z,97226.00
2019-03-27T22:13:42.914Z,97223.00
2019-03-27T22:16:15.849Z,97229.00
2019-03-27T22:18:48.684Z,97222.00
2019-03-27T22:21:21.643Z,97226.00
2019-03-27T22:23:54.569Z,97226.00
2019-03-27T22:26:29.776Z,97224.00
2019-03-27T22:29:02.434Z,97228.00
2019-03-27T22:31:35.054Z,97226.00
2019-03-27T22:34:08.316Z,97230.00
2019-03-27T22:36:42.196Z,97230.00
2019-03-27T22:39:15.108Z,97226.00
2019-03-27T22:41:48.283Z,97231.00
2019-03-27T22:44:21.864Z,97234.00
2019-03-27T22:46:55.113Z,97229.00
2019-03-27T22:49:27.801Z,97227.00
2019-03-27T22:52:02.938Z,97224.00
2019-03-27T22:54:57.102Z,97232.00
2019-03-27T22:57:31.755Z,97232.00
2019-03-27T23:00:04.944Z,97235.00
2019-03-27T23:02:37.637Z,97239.00
2019-03-27T23:05:21.585Z,97239.00
2019-03-27T23:07:56.988Z,97240.00
2019-03-27T23:10:30.209Z,97243.00
2019-03-27T23:13:03.896Z,97230.00
2019-03-27T23:15:51.250Z,97232.00
2019-03-27T23:18:41.536Z,97225.00
2019-03-27T23:21:16.193Z,97227.00
2019-03-27T23:23:49.081Z,97226.00
2019-03-27T23:26:26.989Z,97234.00
2019-03-27T23:28:59.634Z,97236.00
2019-03-27T23:31:35.643Z,97234.00
2019-03-27T23:34:08.310Z,97225.00
2019-03-27T23:36:41.090Z,97228.00
2019-03-27T23:39:14.006Z,97222.00
2019-03-27T23:41:46.713Z,97228.00
2019-03-27T23:44:19.586Z,97220.00
2019-03-27T23:46:52.205Z,97220.00
2019-03-27T23:49:25.003Z,97214.00
2019-03-27T23:51:58.239Z,97214.00
2019-03-27T23:54:30.921Z,97216.00
2019-03-27T23:57:03.538Z,97215.00
2019-03-27T23:59:43.708Z,97212.00
